Abbotsford, British Columbia

3:09 AM PDT on August 24, 2016 (GMT -0700)
Abbotsford | | Change Station

Elev 194 ft 49.03 °N, 122.38 °W | Updated 9 minutes ago

Clear
Clear
57 °F
Feels Like 57 °F
N
0
Wind Variable Wind from North

Today
High -- | Low -- °F
--% Chance of Precip.
Yesterday
High -- | Low -- °F
Precip. -- in
Pressure 30.21 in
Visibility 15.0 miles
Clouds Clear
Dew Point 54 °F
Humidity 88%
Rainfall 0.00 in
Snow Depth Not available.
6:15 AM 8:06 PM
Waning Gibbous, 58% visible
METAR CYXX 241000Z 00000KT 15SM SKC 14/12 A3020 RMK SLP229
Pressure 30.21 in
Visibility 15.0 miles
Clouds Clear
Dew Point 54 °F
Humidity 88%
Rainfall 0.00 in
Snow Depth Not available.
6:15 AM 8:06 PM
Waning Gibbous, 58% visible
METAR CYXX 241000Z 00000KT 15SM SKC 14/12 A3020 RMK SLP229

10-Day Weather Forecast

Almanac

Astronomy

Aug. 24, 2016 Rise Set
Actual Time
Civil Twilight
Nautical Twilight
Astronomical Twilight
Moon
Length of Visible Light
Length of Day
Tomorrow will be .
, % of the Moon is Illuminated

Today's Extremes

Country Highs Country Lows

Community

WunderPhotos

Upload Photos

1,934,560 photos uploaded!

WunderBlog® & News

Nearby

Air Quality

  Air Quality AQ Index Pollutant
Not available.

Snow Depth

Station Depth Elevation

Earthquake Activity

City Distance Mag. Time & Date
Minimum magnitude displayed is 2.5.

Coastal Water Temperatures

Place Temperature

Stations

Nearby Weather Stations

Station Location Temp. Windchill Dew Point Humidity Wind Precip. Elev Updated Type
                   

Watches & Warnings

There are currently no watches in effect.